Home > Products > Valid Products > MTR

000
SAUS46 KSGX 281753
MTRCZZ
METAR KCZZ 281752Z AUTO 07014G22KT 16/07 A3014 RMK AO1 SLP192
T01560067 10156 20067 58002





000
SAUS46 KSGX 281654
MTRCZZ
METAR KCZZ 281652Z AUTO 08013KT 14/08 A3015 RMK AO1 SLP194 T01440078





000
SAUS46 KSGX 281554
MTRCZZ
METAR KCZZ 281552Z AUTO VRB05KT 11/07 A3015 RMK AO1 SLP198 T01060072





000
SAUS46 KSGX 281554
MTRCZZ
METAR KCZZ 281552Z AUTO VRB05KT 11/07 A3015 RMK AO1 SLP198 T01060072





000
SAUS46 KSGX 281453
MTRCZZ
METAR KCZZ 281452Z AUTO VRB03KT 11/06 A3015 RMK AO1 SLP194 T01060061
51010





000
SAUS46 KSGX 281353
MTRCZZ
METAR KCZZ 281352Z AUTO 00000KT 08/06 A3014 RMK AO1 SLP192 T00830056





000
SAUS46 KSGX 281300 COR
MTRCZZ
METAR KCZZ 281252Z AUTO 07006KT 09/06 A3013 RMK AO1 SLP185 T00940061





000
SAUS46 KSGX 281254 COR
MTRCZZ
METAR KCZZ 281252Z AUTO 07006KT 09/06 A3013 RMK AO1 SLP185 T00940061





000
SAUS46 KSGX 281153
MTRCZZ
METAR KCZZ 281152Z AUTO 04005KT 08/06 A3011 RMK AO1 SLP179 T00830056
10083 20039 58016





000
SAUS46 KSGX 281053
MTRCZZ
METAR KCZZ 281052Z AUTO 01006KT 07/04 A3014 RMK AO1 SLP188 T00670044





000
SAUS46 KSGX 280953
MTRCZZ
METAR KCZZ 280952Z AUTO 34003KT 06/04 A3015 RMK AO1 SLP195 T00560039





000
SAUS46 KSGX 280953
MTRCZZ
METAR KCZZ 280952Z AUTO 34003KT 06/04 A3015 RMK AO1 SLP195 T00560039





000
SAUS46 KSGX 280853
MTRCZZ
METAR KCZZ 280852Z AUTO 01006KT 06/04 A3016 RMK AO1 SLP198 T00610039
53001





000
SAUS46 KSGX 280753
MTRCZZ
METAR KCZZ 280752Z AUTO 36006KT 06/04 A3016 RMK AO1 SLP199 T00560039
401940039





000
SAUS46 KSGX 280753
MTRCZZ
METAR KCZZ 280752Z AUTO 36006KT 06/04 A3016 RMK AO1 SLP199 T00560039
401940039





000
SAUS46 KSGX 280653
MTRCZZ
METAR KCZZ 280652Z AUTO 01005KT 05/04 A3016 RMK AO1 SLP199 T00500039





000
SAUS46 KSGX 280653
MTRCZZ
METAR KCZZ 280652Z AUTO 01005KT 05/04 A3016 RMK AO1 SLP199 T00500039





000
SAUS46 KSGX 280553
MTRCZZ
METAR KCZZ 280552Z AUTO 03005KT 06/04 A3016 RMK AO1 SLP198 T00560039
10178 20050 58001





000
SAUS46 KSGX 280553
MTRCZZ
METAR KCZZ 280552Z AUTO 03005KT 06/04 A3016 RMK AO1 SLP198 T00560039
10178 20050 58001





000
SAUS46 KSGX 280453
MTRCZZ
METAR KCZZ 280452Z AUTO 03004KT 06/04 A3017 RMK AO1 SLP203 T00610044





000
SAUS46 KSGX 280353
MTRCZZ
METAR KCZZ 280352Z AUTO 02003KT 08/06 A3017 RMK AO1 SLP207 T00830061





000
SAUS46 KSGX 280353
MTRCZZ
METAR KCZZ 280352Z AUTO 02003KT 08/06 A3017 RMK AO1 SLP207 T00830061





000
SAUS46 KSGX 280253
MTRCZZ
METAR KCZZ 280252Z AUTO 00000KT 10/07 A3017 RMK AO1 SLP206 T01000067
53012





000
SAUS46 KSGX 280253
MTRCZZ
METAR KCZZ 280252Z AUTO 00000KT 10/07 A3017 RMK AO1 SLP206 T01000067
53012





000
SAUS46 KSGX 280153
MTRCZZ
METAR KCZZ 280152Z AUTO 29003KT 13/07 A3014 RMK AO1 SLP195 T01280072





000
SAUS46 KSGX 280053
MTRCZZ
METAR KCZZ 280052Z AUTO 22005KT 15/08 A3014 RMK AO1 SLP190 T01500083





000
SAUS46 KSGX 272353
MTRCZZ
METAR KCZZ 272352Z AUTO 23014KT 18/08 A3013 RMK AO1 SLP186 T01780083
10194 20150 55000





000
SAUS46 KSGX 272253
MTRCZZ
METAR KCZZ 272252Z AUTO 21010KT 18/07 A3012 RMK AO1 SLP185 T01780072





000
SAUS46 KSGX 272153
MTRCZZ
METAR KCZZ 272152Z AUTO 22009KT 19/07 A3012 RMK AO1 SLP182 T01890067





000
SAUS46 KSGX 272053
MTRCZZ
METAR KCZZ 272052Z AUTO 26004KT 18/07 A3013 RMK AO1 SLP185 T01830067
58016





000
SAUS46 KSGX 271953
MTRCZZ
METAR KCZZ 271952Z AUTO VRB04KT 18/08 A3014 RMK AO1 SLP190 T01780078





000
SAUS46 KSGX 271853
MTRCZZ
METAR KCZZ 271852Z AUTO 21004KT 16/08 A3018 RMK AO1 SLP202 T01560078





000
SAUS46 KSGX 271753
MTRCZZ
METAR KCZZ 271752Z AUTO 06006KT 16/09 A3018 RMK AO1 SLP201 T01610089
10161 20044 51001





000
SAUS46 KSGX 271653
MTRCZZ
METAR KCZZ 271652Z AUTO 07007KT 13/08 A3018 RMK AO1 SLP202 T01330083





000
SAUS46 KSGX 271553
MTRCZZ
METAR KCZZ 271552Z AUTO 00000KT 08/06 A3018 RMK AO1 SLP210 T00780061





000
SAUS46 KSGX 271453
MTRCZZ
METAR KCZZ 271452Z AUTO 03003KT 06/04 A3017 RMK AO1 SLP208 T00560044
53015





000
SAUS46 KSGX 271353
MTRCZZ
METAR KCZZ 271352Z AUTO 05005KT 06/05 A3015 RMK AO1 SLP200 T00610050





000
SAUS46 KSGX 271253
MTRCZZ
METAR KCZZ 271252Z AUTO 04004KT 07/05 A3014 RMK AO1 SLP194 T00670050





000
SAUS46 KSGX 271153
MTRCZZ
METAR KCZZ 271152Z AUTO 04003KT 06/04 A3012 RMK AO1 SLP190 70011
T00560044 10100 20039 51005





000
SAUS46 KSGX 271053
MTRCZZ
METAR KCZZ 271052Z AUTO 05005KT 05/04 A3012 RMK AO1 SLP191 T00500039





000
SAUS46 KSGX 270953
MTRCZZ
METAR KCZZ 270952Z AUTO 06003KT 06/05 A3012 RMK AO1 SLP188 T00610050





000
SAUS46 KSGX 270953
MTRCZZ
METAR KCZZ 270952Z AUTO 06003KT 06/05 A3012 RMK AO1 SLP188 T00610050





000
SAUS46 KSGX 270853
MTRCZZ
METAR KCZZ 270852Z AUTO 00000KT 06/05 A3011 RMK AO1 SLP185 T00610050
51008





000
SAUS46 KSGX 270753
MTRCZZ
METAR KCZZ 270752Z AUTO 00000KT 07/06 A3010 RMK AO1 SLP177 T00720061
401720072





000
SAUS46 KSGX 270653
MTRCZZ
METAR KCZZ 270652Z AUTO 05005KT 09/07 A3010 RMK AO1 SLP174 T00940072





000
SAUS46 KSGX 270553
MTRCZZ
METAR KCZZ 270552Z AUTO 05007KT 10/08 A3008 RMK AO1 SLP168 T01000078
10128 20100 51012





000
SAUS46 KSGX 270453
MTRCZZ
METAR KCZZ 270452Z AUTO 07008KT 11/08 A3007 RMK AO1 SLP163 T01060083





000
SAUS46 KSGX 270353
MTRCZZ
METAR KCZZ 270352Z AUTO 07007KT 11/08 A3006 RMK AO1 SLP163 T01110083





000
SAUS46 KSGX 270253
MTRCZZ
METAR KCZZ 270252Z AUTO 07014KT 11/09 A3004 RMK AO1 SLP157 T01110089
53014





000
SAUS46 KSGX 270153
MTRCZZ
METAR KCZZ 270152Z AUTO 08012KT 11/08 A3002 RMK AO1 SLP149 T01110083





000
SAUS46 KSGX 270053
MTRCZZ
METAR KCZZ 270052Z AUTO 07009KT 12/08 A3001 RMK AO1 SLP141 T01220083





000
SAUS46 KSGX 262353
MTRCZZ
METAR KCZZ 262352Z AUTO 06012KT 12/09 A3000 RMK AO1 SLP138 60011
T01220089 10161 20100 56018





000
SAUS46 KSGX 262253
MTRCZZ
METAR KCZZ 262252Z AUTO 07003KT 11/08 A3001 RMK AO1 SLP142 T01110078





000
SAUS46 KSGX 262153
MTRCZZ
METAR KCZZ 262152Z AUTO 06006KT 10/07 A3002 RMK AO1 SLP149 P0009
T01000072





000
SAUS46 KSGX 262053
MTRCZZ
METAR KCZZ 262052Z AUTO 16012KT 11/06 A3006 RMK AO1 SLP160 P0002
60002 T01110061 55004





000
SAUS46 KSGX 261953
MTRCZZ
METAR KCZZ 261952Z AUTO 07011KT 16/02 A3004 RMK AO1 SLP148 T01560017





000
SAUS46 KSGX 261853
MTRCZZ
METAR KCZZ 261852Z AUTO 06016KT 16/M01 A3006 RMK AO1 PK WND
05030/1754 SLP156 T01561006





000
SAUS46 KSGX 261753
MTRCZZ
METAR KCZZ 261752Z AUTO 06022G31KT 16/02 A3007 RMK AO1 PK WND
06031/1749 SLP161 T01610017 10167 20122 51009





000
SAUS46 KSGX 261653
MTRCZZ
METAR KCZZ 261652Z AUTO 06011KT 16/00 A3007 RMK AO1 SLP160 T01610000





000
SAUS46 KSGX 261553
MTRCZZ
METAR KCZZ 261552Z AUTO 07007KT 13/M01 A3006 RMK AO1 SLP159
T01281011





000
SAUS46 KSGX 261453
MTRCZZ
METAR KCZZ 261452Z AUTO 05007KT 13/M02 A3004 RMK AO1 SLP152
T01331022 53004





000
SAUS46 KSGX 261353
MTRCZZ
METAR KCZZ 261352Z AUTO 07014G22KT 14/M02 A3004 RMK AO1 SLP152
T01441017





000
SAUS46 KSGX 261253
MTRCZZ
METAR KCZZ 261252Z AUTO 06014G25KT 16/M02 A2999 RMK AO1 PK WND
06026/1234 WSHFT 1152 SLP131 T01561022





000
SAUS46 KSGX 261210
MTRCZZ
SPECI KCZZ 261209Z AUTO 05012KT 17/M04 A3001 RMK AO1 WSHFT 1152
T01671039





000
SAUS46 KSGX 261153
MTRCZZ
METAR KCZZ 261152Z AUTO 09011KT 17/M04 A3003 RMK AO1 PK WND
05028/1058 SLP143 T01671044 10172 20144 55006





000
SAUS46 KSGX 261053
MTRCZZ
METAR KCZZ 261052Z AUTO 05021G26KT 17/M03 A3001 RMK AO1 PK WND
06026/1051 SLP135 T01671033





000
SAUS46 KSGX 260953
MTRCZZ
METAR KCZZ 260952Z AUTO 07010KT 15/M03 A3003 RMK AO1 SLP146
T01501028





000
SAUS46 KSGX 260853
MTRCZZ
METAR KCZZ 260852Z AUTO 06010KT 15/M03 A3005 RMK AO1 SLP151
T01501033 58003





000
SAUS46 KSGX 260753
MTRCZZ
METAR KCZZ 260752Z AUTO 06012KT 16/M04 A3007 RMK AO1 SLP156
T01611039 402000106





000
SAUS46 KSGX 260654
MTRCZZ
METAR KCZZ 260652Z AUTO 08009KT 16/M04 A3007 RMK AO1 SLP157
T01611039





000
SAUS46 KSGX 260554
MTRCZZ
METAR KCZZ 260552Z AUTO 07008KT 15/M04 A3006 RMK AO1 SLP155
T01501039 10178 20139 53000





000
SAUS46 KSGX 260453
MTRCZZ
METAR KCZZ 260452Z AUTO 07009KT 14/M05 A3005 RMK AO1 SLP153
T01391050





000
SAUS46 KSGX 260353
MTRCZZ
METAR KCZZ 260352Z AUTO 07013KT 14/M06 A3006 RMK AO1 SLP156
T01441056





000
SAUS46 KSGX 260254
MTRCZZ
METAR KCZZ 260252Z AUTO 04011KT 15/M06 A3006 RMK AO1 SLP159
T01501056 51025





000
SAUS46 KSGX 260154
MTRCZZ
METAR KCZZ 260152Z AUTO 05008KT 16/M06 A3005 RMK AO1 SLP157
T01561056





000
SAUS46 KSGX 260154
MTRCZZ
METAR KCZZ 260152Z AUTO 05008KT 16/M06 A3005 RMK AO1 SLP157
T01561056





000
SAUS46 KSGX 260053
MTRCZZ
METAR KCZZ 260052Z AUTO 06013G19KT 17/M06 A3002 RMK AO1 SLP143
T01721061





000
SAUS46 KSGX 252354
MTRCZZ
METAR KCZZ 252352Z AUTO 06017G31KT 18/M07 A2998 RMK AO1 PK WND
05037/2254 SLP130 T01781072 10200 20172 55002





000
SAUS46 KSGX 252253
MTRCZZ
METAR KCZZ 252252Z AUTO 04022G36KT 18/M06 A2996 RMK AO1 PK WND
04036/2243 SLP123 T01781061





000
SAUS46 KSGX 252154
MTRCZZ
METAR KCZZ 252152Z AUTO 06022G28KT 18/M06 A2998 RMK AO1 PK WND
05037/2127 SLP132 T01781061





000
SAUS46 KSGX 252054
MTRCZZ
METAR KCZZ 252052Z AUTO 05027G35KT 18/M07 A2998 RMK AO1 PK WND
05041/2002 SLP131 T01831067 56015





000
SAUS46 KSGX 251954
MTRCZZ
METAR KCZZ 251952Z AUTO 05027G40KT 19/M07 A2999 RMK AO1 PK WND
04045/1920 SLP129 T01941072





000
SAUS46 KSGX 251854
MTRCZZ
METAR KCZZ 251852Z AUTO 05032G42KT 18/M07 A3002 RMK AO1 PK WND
05043/1753 SLP141 T01781067





    US Dept of Commerce
    National Oceanic and Atmospheric Administration
    National Weather Service
    1325 East West Highway
    Silver Spring, MD 20910
    Page Author: NWS Internet Services Team
Disclaimer
Information Quality
Credits
Glossary
Privacy Policy
Freedom of Information Act (FOIA)
About Us
Career Opportunities